Great Ocean — 3FDA5 — position and weather

sailwx.info

Track history (hours):
 
Tides and Currents Weather Stations Pressure Air Temp Water Temp Dewpoint Dewpoint Depression Visibility Wind Speed Wind Dir Waves Ship Positions

Great Ocean

Last reported at 2015-Jan-24 08:33 UTC. Time now 2015-Jan-25 18:17 UTC.
Position N 01°16' E 104°09'.

Length 180 m; draft 6.3 m.

Type: Cargo ship. MMSI: 371452000.

Date/timePositionNaut miles runAvg speedWind from/ knotsBaromVisibWave heightAir tempDewpointWater temp
2015-Jan-24 08:33N 01°16' E 104°09'1211.7
2015-Jan-24 07:34N 01°16' E 103°57'0 0.3
2015-Jan-24 06:18N 01°16' E 103°57'0 0.0
2015-Jan-24 05:12N 01°16' E 103°57'0 0.0
2015-Jan-24 04:24N 01°16' E 103°57'0 0.0
2015-Jan-24 03:06N 01°16' E 103°57'0 0.0
2015-Jan-24 02:33N 01°16' E 103°57'0 0.0
2015-Jan-24 00:24N 01°16' E 103°57'0 0.0
2015-Jan-23 23:06N 01°16' E 103°57'0 0.0
2015-Jan-23 22:30N 01°16' E 103°57'0 0.1
2015-Jan-23 21:21N 01°16' E 103°57'0 0.0
2015-Jan-23 20:24N 01°16' E 103°57'1 1.2
2015-Jan-23 19:33N 01°15' E 103°57'7 6.8
2015-Jan-23 18:33N 01°11' E 103°51'8411.6
2015-Jan-23 11:19N 01°44' E 102°35'912.2
2015-Jan-23 10:33N 01°47' E 102°26'  
2015-Jan-18 16:27N 01°53' E 102°27'1314.2
2015-Jan-18 15:32N 01°47' E 102°38'8012.5
2015-Jan-18 09:08N 01°11' E 103°50'812.6
2015-Jan-18 08:29N 01°14' E 103°57'1112.2
2015-Jan-18 07:33N 01°17' E 104°09'8 5.8
2015-Jan-18 06:13N 01°20' E 104°15'4 0.4
2015-Jan-17 21:18N 01°18' E 104°12'7 8.7
2015-Jan-17 20:32N 01°19' E 104°05'1110.2
2015-Jan-17 19:28N 01°25' E 103°56'2 0.1
2015-Jan-16 18:09N 01°26' E 103°55'4 0.2
2015-Jan-16 00:32N 01°24' E 103°58'9 9.3
2015-Jan-15 23:32N 01°19' E 104°06'5 4.7
2015-Jan-15 22:27N 01°17' E 104°11'  
Track history (hours):
 
Tides and Currents Weather Stations Pressure Air Temp Water Temp Dewpoint Dewpoint Depression Visibility Wind Speed Wind Dir Waves Ship Positions

Great Ocean

Last reported at 2015-Jan-24 08:33 UTC. Time now 2015-Jan-25 18:17 UTC.
Position N 01°16' E 104°09'.

Length 180 m; draft 6.3 m.

Type: Cargo ship. MMSI: 371452000.

Date/timePositionNaut miles runAvg speedWind from/ knotsBaromVisibWave heightAir tempDewpointWater temp
2015-Jan-24 08:33N 01°16' E 104°09'1211.7
2015-Jan-24 07:34N 01°16' E 103°57'0 0.3
2015-Jan-24 06:18N 01°16' E 103°57'0 0.0
2015-Jan-24 05:12N 01°16' E 103°57'0 0.0
2015-Jan-24 04:24N 01°16' E 103°57'0 0.0
2015-Jan-24 03:06N 01°16' E 103°57'0 0.0
2015-Jan-24 02:33N 01°16' E 103°57'0 0.0
2015-Jan-24 00:24N 01°16' E 103°57'0 0.0
2015-Jan-23 23:06N 01°16' E 103°57'0 0.0
2015-Jan-23 22:30N 01°16' E 103°57'0 0.1
2015-Jan-23 21:21N 01°16' E 103°57'0 0.0
2015-Jan-23 20:24N 01°16' E 103°57'1 1.2
2015-Jan-23 19:33N 01°15' E 103°57'7 6.8
2015-Jan-23 18:33N 01°11' E 103°51'8411.6
2015-Jan-23 11:19N 01°44' E 102°35'912.2
2015-Jan-23 10:33N 01°47' E 102°26'  
2015-Jan-18 16:27N 01°53' E 102°27'1314.2
2015-Jan-18 15:32N 01°47' E 102°38'8012.5
2015-Jan-18 09:08N 01°11' E 103°50'812.6
2015-Jan-18 08:29N 01°14' E 103°57'1112.2
2015-Jan-18 07:33N 01°17' E 104°09'8 5.8
2015-Jan-18 06:13N 01°20' E 104°15'4 0.4
2015-Jan-17 21:18N 01°18' E 104°12'7 8.7
2015-Jan-17 20:32N 01°19' E 104°05'1110.2
2015-Jan-17 19:28N 01°25' E 103°56'2 0.1
2015-Jan-16 18:09N 01°26' E 103°55'4 0.2
2015-Jan-16 00:32N 01°24' E 103°58'9 9.3
2015-Jan-15 23:32N 01°19' E 104°06'5 4.7
2015-Jan-15 22:27N 01°17' E 104°11'  

Dump ship's entire track history